sensor_id;sensor_type;location;lat;lon;timestamp;P1;durP1;ratioP1;P2;durP2;ratioP2
77078;SDS011;66004;55.096;38.760;2023-02-01T00:01:37;22.55;;;10.45;;
77078;SDS011;66004;55.096;38.760;2023-02-01T00:04:02;26.85;;;11.65;;
77078;SDS011;66004;55.096;38.760;2023-02-01T00:06:28;28.10;;;11.40;;
77078;SDS011;66004;55.096;38.760;2023-02-01T00:08:53;24.70;;;10.25;;
77078;SDS011;66004;55.096;38.760;2023-02-01T00:11:19;25.27;;;11.05;;
77078;SDS011;66004;55.096;38.760;2023-02-01T00:13:46;21.15;;;10.43;;
77078;SDS011;66004;55.096;38.760;2023-02-01T00:18:42;28.75;;;11.45;;
77078;SDS011;66004;55.096;38.760;2023-02-01T00:21:12;23.00;;;11.23;;
77078;SDS011;66004;55.096;38.760;2023-02-01T00:23:42;28.33;;;10.68;;
77078;SDS011;66004;55.096;38.760;2023-02-01T00:26:12;25.95;;;12.10;;
77078;SDS011;66004;55.096;38.760;2023-02-01T00:28:41;29.20;;;11.93;;
77078;SDS011;66004;55.096;38.760;2023-02-01T00:31:06;26.52;;;10.82;;
77078;SDS011;66004;55.096;38.760;2023-02-01T00:33:32;23.30;;;10.52;;
77078;SDS011;66004;55.096;38.760;2023-02-01T00:35:59;24.08;;;11.15;;
77078;SDS011;66004;55.096;38.760;2023-02-01T00:38:27;26.42;;;11.50;;
77078;SDS011;66004;55.096;38.760;2023-02-01T00:40:53;28.55;;;11.45;;
77078;SDS011;66004;55.096;38.760;2023-02-01T00:43:19;29.85;;;11.07;;
77078;SDS011;66004;55.096;38.760;2023-02-01T00:45:45;25.27;;;11.13;;
77078;SDS011;66004;55.096;38.760;2023-02-01T00:48:11;23.98;;;10.93;;
77078;SDS011;66004;55.096;38.760;2023-02-01T00:50:43;25.92;;;11.00;;
77078;SDS011;66004;55.096;38.760;2023-02-01T00:53:10;25.63;;;11.73;;
77078;SDS011;66004;55.096;38.760;2023-02-01T00:58:01;25.13;;;10.75;;
77078;SDS011;66004;55.096;38.760;2023-02-01T01:00:27;26.02;;;11.18;;
77078;SDS011;66004;55.096;38.760;2023-02-01T01:02:52;25.15;;;10.38;;
77078;SDS011;66004;55.096;38.760;2023-02-01T01:05:18;28.38;;;11.02;;
77078;SDS011;66004;55.096;38.760;2023-02-01T01:07:43;26.30;;;10.80;;
77078;SDS011;66004;55.096;38.760;2023-02-01T01:10:09;25.15;;;11.50;;
77078;SDS011;66004;55.096;38.760;2023-02-01T01:12:35;25.67;;;10.55;;
77078;SDS011;66004;55.096;38.760;2023-02-01T01:15:00;22.95;;;10.40;;
77078;SDS011;66004;55.096;38.760;2023-02-01T01:17:26;28.63;;;11.15;;
77078;SDS011;66004;55.096;38.760;2023-02-01T01:19:51;23.23;;;10.32;;
77078;SDS011;66004;55.096;38.760;2023-02-01T01:22:17;25.88;;;10.55;;
77078;SDS011;66004;55.096;38.760;2023-02-01T01:24:43;23.58;;;10.45;;
77078;SDS011;66004;55.096;38.760;2023-02-01T01:27:08;27.00;;;11.57;;
77078;SDS011;66004;55.096;38.760;2023-02-01T01:29:34;26.60;;;10.93;;
77078;SDS011;66004;55.096;38.760;2023-02-01T01:31:59;25.55;;;8.90;;
77078;SDS011;66004;55.096;38.760;2023-02-01T01:34:25;26.52;;;11.02;;
77078;SDS011;66004;55.096;38.760;2023-02-01T01:36:51;23.75;;;10.15;;
77078;SDS011;66004;55.096;38.760;2023-02-01T01:39:16;27.63;;;11.18;;
77078;SDS011;66004;55.096;38.760;2023-02-01T01:41:42;23.17;;;9.98;;
77078;SDS011;66004;55.096;38.760;2023-02-01T01:44:53;23.50;;;10.30;;
77078;SDS011;66004;55.096;38.760;2023-02-01T01:47:11;25.80;;;10.15;;
77078;SDS011;66004;55.096;38.760;2023-02-01T01:49:37;25.38;;;10.77;;
77078;SDS011;66004;55.096;38.760;2023-02-01T01:52:03;27.23;;;11.25;;
77078;SDS011;66004;55.096;38.760;2023-02-01T01:54:31;27.00;;;11.05;;
77078;SDS011;66004;55.096;38.760;2023-02-01T01:57:11;23.98;;;10.82;;
77078;SDS011;66004;55.096;38.760;2023-02-01T01:59:41;22.55;;;8.98;;
77078;SDS011;66004;55.096;38.760;2023-02-01T02:02:11;25.25;;;10.48;;
77078;SDS011;66004;55.096;38.760;2023-02-01T02:04:37;26.23;;;11.30;;
77078;SDS011;66004;55.096;38.760;2023-02-01T02:09:37;26.00;;;11.18;;
77078;SDS011;66004;55.096;38.760;2023-02-01T02:12:03;25.40;;;11.13;;
77078;SDS011;66004;55.096;38.760;2023-02-01T02:14:28;29.13;;;10.60;;
77078;SDS011;66004;55.096;38.760;2023-02-01T02:19:48;27.05;;;9.75;;
77078;SDS011;66004;55.096;38.760;2023-02-01T02:33:50;29.63;;;11.23;;
77078;SDS011;66004;55.096;38.760;2023-02-01T02:44:56;29.48;;;11.23;;
77078;SDS011;66004;55.096;38.760;2023-02-01T02:47:51;28.45;;;10.98;;
77078;SDS011;66004;55.096;38.760;2023-02-01T02:53:35;28.63;;;9.93;;
77078;SDS011;66004;55.096;38.760;2023-02-01T02:56:26;21.60;;;10.00;;
77078;SDS011;66004;55.096;38.760;2023-02-01T02:59:12;28.33;;;10.93;;
77078;SDS011;66004;55.096;38.760;2023-02-01T03:02:03;27.73;;;10.98;;
77078;SDS011;66004;55.096;38.760;2023-02-01T03:04:51;26.63;;;11.02;;
77078;SDS011;66004;55.096;38.760;2023-02-01T03:13:06;28.35;;;11.27;;
77078;SDS011;66004;55.096;38.760;2023-02-01T03:15:45;25.75;;;10.80;;
77078;SDS011;66004;55.096;38.760;2023-02-01T03:21:24;26.55;;;11.43;;
77078;SDS011;66004;55.096;38.760;2023-02-01T03:23:56;32.08;;;12.00;;
77078;SDS011;66004;55.096;38.760;2023-02-01T03:26:27;25.17;;;10.30;;
77078;SDS011;66004;55.096;38.760;2023-02-01T03:28:57;30.30;;;10.90;;
77078;SDS011;66004;55.096;38.760;2023-02-01T03:31:30;28.45;;;10.23;;
77078;SDS011;66004;55.096;38.760;2023-02-01T03:33:57;29.23;;;12.60;;
77078;SDS011;66004;55.096;38.760;2023-02-01T03:41:43;29.17;;;11.73;;
77078;SDS011;66004;55.096;38.760;2023-02-01T03:47:06;28.42;;;11.13;;
77078;SDS011;66004;55.096;38.760;2023-02-01T03:49:39;31.05;;;12.15;;
77078;SDS011;66004;55.096;38.760;2023-02-01T03:52:13;31.17;;;12.75;;
77078;SDS011;66004;55.096;38.760;2023-02-01T03:54:43;27.73;;;11.75;;
77078;SDS011;66004;55.096;38.760;2023-02-01T03:57:11;30.15;;;11.93;;
77078;SDS011;66004;55.096;38.760;2023-02-01T03:59:40;33.78;;;13.20;;
77078;SDS011;66004;55.096;38.760;2023-02-01T04:02:07;36.53;;;13.00;;
77078;SDS011;66004;55.096;38.760;2023-02-01T04:04:33;32.88;;;12.27;;
77078;SDS011;66004;55.096;38.760;2023-02-01T04:07:00;26.63;;;12.55;;
77078;SDS011;66004;55.096;38.760;2023-02-01T04:09:26;33.55;;;11.98;;
77078;SDS011;66004;55.096;38.760;2023-02-01T04:11:51;31.88;;;12.00;;
77078;SDS011;66004;55.096;38.760;2023-02-01T04:14:17;32.80;;;12.88;;
77078;SDS011;66004;55.096;38.760;2023-02-01T04:16:42;31.63;;;12.10;;
77078;SDS011;66004;55.096;38.760;2023-02-01T04:19:08;35.05;;;13.00;;
77078;SDS011;66004;55.096;38.760;2023-02-01T04:21:33;33.67;;;13.45;;
77078;SDS011;66004;55.096;38.760;2023-02-01T04:23:59;33.92;;;13.52;;
77078;SDS011;66004;55.096;38.760;2023-02-01T04:26:24;30.75;;;12.90;;
77078;SDS011;66004;55.096;38.760;2023-02-01T04:28:50;36.67;;;12.45;;
77078;SDS011;66004;55.096;38.760;2023-02-01T04:31:18;32.08;;;12.27;;
77078;SDS011;66004;55.096;38.760;2023-02-01T04:33:51;34.95;;;13.93;;
77078;SDS011;66004;55.096;38.760;2023-02-01T04:36:18;33.85;;;13.07;;
77078;SDS011;66004;55.096;38.760;2023-02-01T04:38:50;34.58;;;14.40;;
77078;SDS011;66004;55.096;38.760;2023-02-01T04:41:16;28.73;;;12.60;;
77078;SDS011;66004;55.096;38.760;2023-02-01T04:43:46;29.92;;;11.90;;
77078;SDS011;66004;55.096;38.760;2023-02-01T04:46:12;31.33;;;13.32;;
77078;SDS011;66004;55.096;38.760;2023-02-01T04:48:37;32.20;;;12.40;;
77078;SDS011;66004;55.096;38.760;2023-02-01T04:51:03;33.28;;;13.25;;
77078;SDS011;66004;55.096;38.760;2023-02-01T04:53:29;30.77;;;13.25;;
77078;SDS011;66004;55.096;38.760;2023-02-01T04:55:55;30.75;;;13.38;;
77078;SDS011;66004;55.096;38.760;2023-02-01T04:58:20;31.83;;;12.80;;
77078;SDS011;66004;55.096;38.760;2023-02-01T05:00:46;30.70;;;12.88;;
77078;SDS011;66004;55.096;38.760;2023-02-01T05:03:12;33.55;;;12.15;;
77078;SDS011;66004;55.096;38.760;2023-02-01T05:05:37;29.80;;;13.50;;
77078;SDS011;66004;55.096;38.760;2023-02-01T05:08:03;32.50;;;12.32;;
77078;SDS011;66004;55.096;38.760;2023-02-01T05:10:28;35.50;;;14.02;;
77078;SDS011;66004;55.096;38.760;2023-02-01T05:12:54;30.85;;;11.50;;
77078;SDS011;66004;55.096;38.760;2023-02-01T05:15:41;30.25;;;11.20;;
77078;SDS011;66004;55.096;38.760;2023-02-01T05:18:07;34.50;;;13.35;;
77078;SDS011;66004;55.096;38.760;2023-02-01T05:20:32;32.80;;;13.10;;
77078;SDS011;66004;55.096;38.760;2023-02-01T05:22:58;33.40;;;12.93;;
77078;SDS011;66004;55.096;38.760;2023-02-01T05:25:23;34.92;;;13.15;;
77078;SDS011;66004;55.096;38.760;2023-02-01T05:27:49;31.27;;;13.20;;
77078;SDS011;66004;55.096;38.760;2023-02-01T05:30:14;32.92;;;11.60;;
77078;SDS011;66004;55.096;38.760;2023-02-01T05:32:40;29.00;;;12.13;;
77078;SDS011;66004;55.096;38.760;2023-02-01T05:35:06;28.77;;;10.35;;
77078;SDS011;66004;55.096;38.760;2023-02-01T05:37:32;26.70;;;11.73;;
77078;SDS011;66004;55.096;38.760;2023-02-01T05:39:57;29.65;;;11.70;;
77078;SDS011;66004;55.096;38.760;2023-02-01T05:42:23;34.03;;;12.98;;
77078;SDS011;66004;55.096;38.760;2023-02-01T05:44:48;32.22;;;13.38;;
77078;SDS011;66004;55.096;38.760;2023-02-01T05:47:14;33.30;;;12.73;;
77078;SDS011;66004;55.096;38.760;2023-02-01T05:49:39;32.85;;;13.02;;
77078;SDS011;66004;55.096;38.760;2023-02-01T05:52:05;27.85;;;10.88;;
77078;SDS011;66004;55.096;38.760;2023-02-01T05:54:30;30.38;;;12.18;;
77078;SDS011;66004;55.096;38.760;2023-02-01T05:56:56;28.35;;;12.15;;
77078;SDS011;66004;55.096;38.760;2023-02-01T05:59:22;36.03;;;12.60;;
77078;SDS011;66004;55.096;38.760;2023-02-01T06:01:47;33.75;;;11.68;;
77078;SDS011;66004;55.096;38.760;2023-02-01T06:04:13;30.65;;;11.98;;
77078;SDS011;66004;55.096;38.760;2023-02-01T06:06:38;30.27;;;11.20;;
77078;SDS011;66004;55.096;38.760;2023-02-01T06:11:30;28.75;;;11.43;;
77078;SDS011;66004;55.096;38.760;2023-02-01T06:13:56;29.98;;;12.20;;
77078;SDS011;66004;55.096;38.760;2023-02-01T06:16:22;30.50;;;11.93;;
77078;SDS011;66004;55.096;38.760;2023-02-01T06:18:48;28.27;;;11.70;;
77078;SDS011;66004;55.096;38.760;2023-02-01T06:21:14;30.25;;;12.35;;
77078;SDS011;66004;55.096;38.760;2023-02-01T06:23:48;30.65;;;12.35;;
77078;SDS011;66004;55.096;38.760;2023-02-01T06:26:17;30.85;;;11.93;;
77078;SDS011;66004;55.096;38.760;2023-02-01T06:28:43;25.85;;;11.25;;
77078;SDS011;66004;55.096;38.760;2023-02-01T06:31:09;33.35;;;11.75;;
77078;SDS011;66004;55.096;38.760;2023-02-01T06:33:35;30.48;;;11.70;;
77078;SDS011;66004;55.096;38.760;2023-02-01T06:36:01;28.95;;;11.20;;
77078;SDS011;66004;55.096;38.760;2023-02-01T06:38:29;28.52;;;11.73;;
77078;SDS011;66004;55.096;38.760;2023-02-01T06:40:56;30.65;;;10.98;;
77078;SDS011;66004;55.096;38.760;2023-02-01T06:43:23;29.83;;;11.60;;
77078;SDS011;66004;55.096;38.760;2023-02-01T06:45:50;28.33;;;11.18;;
77078;SDS011;66004;55.096;38.760;2023-02-01T06:50:42;25.85;;;10.30;;
77078;SDS011;66004;55.096;38.760;2023-02-01T06:53:07;29.77;;;10.95;;
77078;SDS011;66004;55.096;38.760;2023-02-01T06:55:33;23.02;;;9.45;;
77078;SDS011;66004;55.096;38.760;2023-02-01T06:57:58;30.40;;;11.30;;
77078;SDS011;66004;55.096;38.760;2023-02-01T07:00:26;26.55;;;10.40;;
77078;SDS011;66004;55.096;38.760;2023-02-01T07:02:51;25.83;;;10.70;;
77078;SDS011;66004;55.096;38.760;2023-02-01T07:05:17;24.67;;;10.10;;
77078;SDS011;66004;55.096;38.760;2023-02-01T07:07:42;26.75;;;10.32;;
77078;SDS011;66004;55.096;38.760;2023-02-01T07:10:09;23.55;;;10.10;;
77078;SDS011;66004;55.096;38.760;2023-02-01T07:12:34;24.95;;;10.63;;
77078;SDS011;66004;55.096;38.760;2023-02-01T07:15:00;24.60;;;10.82;;
77078;SDS011;66004;55.096;38.760;2023-02-01T07:17:27;22.80;;;10.40;;
77078;SDS011;66004;55.096;38.760;2023-02-01T07:19:54;26.08;;;11.10;;
77078;SDS011;66004;55.096;38.760;2023-02-01T07:22:26;20.45;;;9.82;;
77078;SDS011;66004;55.096;38.760;2023-02-01T07:24:52;23.10;;;9.52;;
77078;SDS011;66004;55.096;38.760;2023-02-01T07:27:18;24.25;;;9.65;;
77078;SDS011;66004;55.096;38.760;2023-02-01T07:29:44;19.48;;;8.90;;
77078;SDS011;66004;55.096;38.760;2023-02-01T07:32:10;20.70;;;9.07;;
77078;SDS011;66004;55.096;38.760;2023-02-01T07:34:36;22.77;;;9.80;;
77078;SDS011;66004;55.096;38.760;2023-02-01T07:37:01;24.35;;;9.35;;
77078;SDS011;66004;55.096;38.760;2023-02-01T07:41:53;21.30;;;8.80;;
77078;SDS011;66004;55.096;38.760;2023-02-01T07:44:19;22.17;;;9.07;;
77078;SDS011;66004;55.096;38.760;2023-02-01T07:46:47;21.23;;;9.10;;
77078;SDS011;66004;55.096;38.760;2023-02-01T07:49:13;21.80;;;9.30;;
77078;SDS011;66004;55.096;38.760;2023-02-01T07:51:39;22.95;;;9.70;;
77078;SDS011;66004;55.096;38.760;2023-02-01T07:54:04;24.60;;;9.40;;
77078;SDS011;66004;55.096;38.760;2023-02-01T07:56:30;22.70;;;10.13;;
77078;SDS011;66004;55.096;38.760;2023-02-01T07:58:55;25.00;;;9.40;;
77078;SDS011;66004;55.096;38.760;2023-02-01T08:01:22;25.83;;;10.45;;
77078;SDS011;66004;55.096;38.760;2023-02-01T08:03:59;23.13;;;10.07;;
77078;SDS011;66004;55.096;38.760;2023-02-01T08:06:27;24.55;;;10.52;;
77078;SDS011;66004;55.096;38.760;2023-02-01T08:08:56;25.05;;;9.40;;
77078;SDS011;66004;55.096;38.760;2023-02-01T08:11:22;22.98;;;9.05;;
77078;SDS011;66004;55.096;38.760;2023-02-01T08:16:14;23.95;;;8.32;;
77078;SDS011;66004;55.096;38.760;2023-02-01T08:18:41;29.90;;;10.63;;
77078;SDS011;66004;55.096;38.760;2023-02-01T08:21:11;28.27;;;10.77;;
77078;SDS011;66004;55.096;38.760;2023-02-01T08:23:37;28.08;;;9.43;;
77078;SDS011;66004;55.096;38.760;2023-02-01T08:26:25;25.48;;;9.82;;
77078;SDS011;66004;55.096;38.760;2023-02-01T08:28:54;20.75;;;9.38;;
77078;SDS011;66004;55.096;38.760;2023-02-01T08:31:22;26.10;;;10.60;;
77078;SDS011;66004;55.096;38.760;2023-02-01T08:33:53;22.58;;;9.60;;
77078;SDS011;66004;55.096;38.760;2023-02-01T08:36:20;24.17;;;9.20;;
77078;SDS011;66004;55.096;38.760;2023-02-01T08:38:47;25.30;;;10.45;;
77078;SDS011;66004;55.096;38.760;2023-02-01T08:41:14;23.75;;;9.40;;
77078;SDS011;66004;55.096;38.760;2023-02-01T08:43:41;27.77;;;11.60;;
77078;SDS011;66004;55.096;38.760;2023-02-01T08:46:08;21.50;;;9.55;;
77078;SDS011;66004;55.096;38.760;2023-02-01T08:48:34;23.48;;;9.10;;
77078;SDS011;66004;55.096;38.760;2023-02-01T09:24:35;24.73;;;9.23;;
77078;SDS011;66004;55.096;38.760;2023-02-01T09:27:01;23.33;;;9.02;;
77078;SDS011;66004;55.096;38.760;2023-02-01T09:29:26;21.63;;;9.38;;
77078;SDS011;66004;55.096;38.760;2023-02-01T09:31:52;20.70;;;8.48;;
77078;SDS011;66004;55.096;38.760;2023-02-01T09:34:17;25.75;;;9.50;;
77078;SDS011;66004;55.096;38.760;2023-02-01T09:36:43;22.75;;;9.13;;
77078;SDS011;66004;55.096;38.760;2023-02-01T09:39:08;23.90;;;9.85;;
77078;SDS011;66004;55.096;38.760;2023-02-01T09:41:50;25.05;;;9.00;;
77078;SDS011;66004;55.096;38.760;2023-02-01T09:46:58;20.50;;;8.52;;
77078;SDS011;66004;55.096;38.760;2023-02-01T09:49:32;20.35;;;8.20;;
77078;SDS011;66004;55.096;38.760;2023-02-01T09:52:02;30.77;;;10.38;;
77078;SDS011;66004;55.096;38.760;2023-02-01T09:54:52;22.38;;;9.98;;
77078;SDS011;66004;55.096;38.760;2023-02-01T09:57:27;25.27;;;9.52;;
77078;SDS011;66004;55.096;38.760;2023-02-01T10:00:06;20.05;;;8.80;;
77078;SDS011;66004;55.096;38.760;2023-02-01T10:02:41;22.83;;;9.57;;
77078;SDS011;66004;55.096;38.760;2023-02-01T10:05:11;23.92;;;10.07;;
77078;SDS011;66004;55.096;38.760;2023-02-01T10:10:23;23.05;;;9.25;;
77078;SDS011;66004;55.096;38.760;2023-02-01T10:13:13;21.45;;;8.57;;
77078;SDS011;66004;55.096;38.760;2023-02-01T10:21:58;21.30;;;8.90;;
77078;SDS011;66004;55.096;38.760;2023-02-01T10:24:40;23.67;;;9.35;;
77078;SDS011;66004;55.096;38.760;2023-02-01T10:29:47;18.95;;;8.60;;
77078;SDS011;66004;55.096;38.760;2023-02-01T10:32:24;21.48;;;8.35;;
77078;SDS011;66004;55.096;38.760;2023-02-01T10:34:58;19.77;;;8.20;;
77078;SDS011;66004;55.096;38.760;2023-02-01T10:37:32;22.45;;;9.30;;
77078;SDS011;66004;55.096;38.760;2023-02-01T10:40:13;20.17;;;8.63;;
77078;SDS011;66004;55.096;38.760;2023-02-01T10:42:40;20.65;;;9.90;;
77078;SDS011;66004;55.096;38.760;2023-02-01T10:45:06;20.80;;;8.95;;
77078;SDS011;66004;55.096;38.760;2023-02-01T10:47:32;20.83;;;9.68;;
77078;SDS011;66004;55.096;38.760;2023-02-01T10:50:02;23.67;;;10.88;;
77078;SDS011;66004;55.096;38.760;2023-02-01T10:52:35;20.38;;;8.40;;
77078;SDS011;66004;55.096;38.760;2023-02-01T10:57:57;18.98;;;7.63;;
77078;SDS011;66004;55.096;38.760;2023-02-01T11:00:26;22.45;;;9.05;;
77078;SDS011;66004;55.096;38.760;2023-02-01T11:02:53;20.48;;;8.82;;
77078;SDS011;66004;55.096;38.760;2023-02-01T11:05:19;21.80;;;9.63;;
77078;SDS011;66004;55.096;38.760;2023-02-01T11:07:51;21.45;;;8.68;;
77078;SDS011;66004;55.096;38.760;2023-02-01T11:10:39;20.33;;;9.77;;
77078;SDS011;66004;55.096;38.760;2023-02-01T11:13:13;20.67;;;8.35;;
77078;SDS011;66004;55.096;38.760;2023-02-01T11:15:46;24.35;;;9.38;;
77078;SDS011;66004;55.096;38.760;2023-02-01T11:18:20;23.80;;;9.10;;
77078;SDS011;66004;55.096;38.760;2023-02-01T11:20:54;21.98;;;8.43;;
77078;SDS011;66004;55.096;38.760;2023-02-01T11:23:27;23.23;;;9.48;;
77078;SDS011;66004;55.096;38.760;2023-02-01T11:25:55;21.38;;;9.68;;
77078;SDS011;66004;55.096;38.760;2023-02-01T11:28:26;20.05;;;9.45;;
77078;SDS011;66004;55.096;38.760;2023-02-01T11:30:56;17.70;;;7.97;;
77078;SDS011;66004;55.096;38.760;2023-02-01T11:33:36;25.25;;;9.82;;
77078;SDS011;66004;55.096;38.760;2023-02-01T11:36:37;24.30;;;9.10;;
77078;SDS011;66004;55.096;38.760;2023-02-01T11:39:09;19.90;;;7.95;;
77078;SDS011;66004;55.096;38.760;2023-02-01T11:41:54;18.02;;;7.97;;
77078;SDS011;66004;55.096;38.760;2023-02-01T11:44:40;23.10;;;8.88;;
77078;SDS011;66004;55.096;38.760;2023-02-01T11:47:23;20.48;;;7.90;;
77078;SDS011;66004;55.096;38.760;2023-02-01T11:49:52;21.58;;;8.77;;
77078;SDS011;66004;55.096;38.760;2023-02-01T12:08:13;20.95;;;9.00;;
77078;SDS011;66004;55.096;38.760;2023-02-01T12:38:18;25.48;;;9.20;;
77078;SDS011;66004;55.096;38.760;2023-02-01T12:43:36;20.58;;;9.20;;
77078;SDS011;66004;55.096;38.760;2023-02-01T12:51:40;19.92;;;8.55;;
77078;SDS011;66004;55.096;38.760;2023-02-01T12:54:14;24.23;;;10.25;;
77078;SDS011;66004;55.096;38.760;2023-02-01T12:56:47;21.17;;;8.98;;
77078;SDS011;66004;55.096;38.760;2023-02-01T12:59:41;20.38;;;8.98;;
77078;SDS011;66004;55.096;38.760;2023-02-01T13:05:01;25.85;;;10.27;;
77078;SDS011;66004;55.096;38.760;2023-02-01T13:07:41;23.75;;;10.35;;
77078;SDS011;66004;55.096;38.760;2023-02-01T13:10:12;24.20;;;9.73;;
77078;SDS011;66004;55.096;38.760;2023-02-01T13:15:24;24.75;;;10.50;;
77078;SDS011;66004;55.096;38.760;2023-02-01T13:17:54;22.60;;;9.40;;
77078;SDS011;66004;55.096;38.760;2023-02-01T13:20:31;20.67;;;8.88;;
77078;SDS011;66004;55.096;38.760;2023-02-01T13:23:04;25.25;;;9.75;;
77078;SDS011;66004;55.096;38.760;2023-02-01T13:25:54;19.40;;;8.43;;
77078;SDS011;66004;55.096;38.760;2023-02-01T13:44:51;21.85;;;8.98;;
77078;SDS011;66004;55.096;38.760;2023-02-01T13:47:30;23.48;;;9.63;;
77078;SDS011;66004;55.096;38.760;2023-02-01T13:58:29;22.05;;;9.68;;
77078;SDS011;66004;55.096;38.760;2023-02-01T14:00:45;21.92;;;9.30;;
77078;SDS011;66004;55.096;38.760;2023-02-01T14:09:14;25.02;;;11.27;;
77078;SDS011;66004;55.096;38.760;2023-02-01T14:17:44;23.55;;;9.52;;
77078;SDS011;66004;55.096;38.760;2023-02-01T14:23:15;21.83;;;9.32;;
77078;SDS011;66004;55.096;38.760;2023-02-01T14:25:44;23.38;;;9.55;;
77078;SDS011;66004;55.096;38.760;2023-02-01T14:28:16;23.02;;;9.18;;
77078;SDS011;66004;55.096;38.760;2023-02-01T14:30:49;23.38;;;9.88;;
77078;SDS011;66004;55.096;38.760;2023-02-01T14:33:20;20.05;;;8.45;;
77078;SDS011;66004;55.096;38.760;2023-02-01T14:38:28;20.73;;;9.05;;
77078;SDS011;66004;55.096;38.760;2023-02-01T14:41:09;23.08;;;8.05;;
77078;SDS011;66004;55.096;38.760;2023-02-01T14:49:37;19.05;;;8.40;;
77078;SDS011;66004;55.096;38.760;2023-02-01T15:19:25;26.00;;;10.13;;
77078;SDS011;66004;55.096;38.760;2023-02-01T15:21:56;23.67;;;10.15;;
77078;SDS011;66004;55.096;38.760;2023-02-01T15:24:27;26.63;;;11.05;;
77078;SDS011;66004;55.096;38.760;2023-02-01T15:26:55;24.45;;;10.50;;
77078;SDS011;66004;55.096;38.760;2023-02-01T15:29:27;19.45;;;9.30;;
77078;SDS011;66004;55.096;38.760;2023-02-01T15:31:57;24.65;;;10.60;;
77078;SDS011;66004;55.096;38.760;2023-02-01T15:34:33;20.52;;;8.57;;
77078;SDS011;66004;55.096;38.760;2023-02-01T15:37:13;24.48;;;8.75;;
77078;SDS011;66004;55.096;38.760;2023-02-01T15:42:32;22.88;;;9.88;;
77078;SDS011;66004;55.096;38.760;2023-02-01T15:44:58;22.73;;;9.63;;
77078;SDS011;66004;55.096;38.760;2023-02-01T15:47:25;19.17;;;8.10;;
77078;SDS011;66004;55.096;38.760;2023-02-01T15:49:55;21.55;;;9.40;;
77078;SDS011;66004;55.096;38.760;2023-02-01T15:55:06;17.52;;;7.65;;
77078;SDS011;66004;55.096;38.760;2023-02-01T15:57:42;23.42;;;8.82;;
77078;SDS011;66004;55.096;38.760;2023-02-01T16:02:55;19.85;;;7.32;;
77078;SDS011;66004;55.096;38.760;2023-02-01T16:05:35;19.17;;;7.85;;
77078;SDS011;66004;55.096;38.760;2023-02-01T16:10:43;20.83;;;7.88;;
77078;SDS011;66004;55.096;38.760;2023-02-01T16:13:10;16.95;;;7.47;;
77078;SDS011;66004;55.096;38.760;2023-02-01T16:15:37;19.83;;;8.80;;
77078;SDS011;66004;55.096;38.760;2023-02-01T16:18:04;20.23;;;9.52;;
77078;SDS011;66004;55.096;38.760;2023-02-01T16:20:32;19.63;;;9.13;;
77078;SDS011;66004;55.096;38.760;2023-02-01T16:23:00;20.23;;;9.38;;
77078;SDS011;66004;55.096;38.760;2023-02-01T16:25:26;20.45;;;7.38;;
77078;SDS011;66004;55.096;38.760;2023-02-01T16:27:51;21.13;;;10.07;;
77078;SDS011;66004;55.096;38.760;2023-02-01T16:30:17;21.77;;;8.35;;
77078;SDS011;66004;55.096;38.760;2023-02-01T16:32:48;18.98;;;8.43;;
77078;SDS011;66004;55.096;38.760;2023-02-01T16:35:22;18.67;;;7.63;;
77078;SDS011;66004;55.096;38.760;2023-02-01T16:38:01;23.52;;;9.35;;
77078;SDS011;66004;55.096;38.760;2023-02-01T16:40:40;21.88;;;10.07;;
77078;SDS011;66004;55.096;38.760;2023-02-01T16:43:14;23.38;;;10.73;;
77078;SDS011;66004;55.096;38.760;2023-02-01T16:45:40;25.10;;;9.70;;
77078;SDS011;66004;55.096;38.760;2023-02-01T16:48:10;20.05;;;8.55;;
77078;SDS011;66004;55.096;38.760;2023-02-01T16:50:45;20.40;;;9.57;;
77078;SDS011;66004;55.096;38.760;2023-02-01T16:53:12;21.50;;;9.68;;
77078;SDS011;66004;55.096;38.760;2023-02-01T16:55:41;23.40;;;10.10;;
77078;SDS011;66004;55.096;38.760;2023-02-01T16:58:08;24.77;;;10.05;;
77078;SDS011;66004;55.096;38.760;2023-02-01T17:00:34;21.30;;;9.05;;
77078;SDS011;66004;55.096;38.760;2023-02-01T17:03:03;23.67;;;10.45;;
77078;SDS011;66004;55.096;38.760;2023-02-01T17:05:30;23.25;;;9.63;;
77078;SDS011;66004;55.096;38.760;2023-02-01T17:07:57;21.30;;;9.95;;
77078;SDS011;66004;55.096;38.760;2023-02-01T17:10:31;21.08;;;9.95;;
77078;SDS011;66004;55.096;38.760;2023-02-01T17:12:57;22.40;;;10.43;;
77078;SDS011;66004;55.096;38.760;2023-02-01T17:15:26;23.35;;;10.75;;
77078;SDS011;66004;55.096;38.760;2023-02-01T17:17:54;23.88;;;9.48;;
77078;SDS011;66004;55.096;38.760;2023-02-01T17:20:22;26.73;;;11.43;;
77078;SDS011;66004;55.096;38.760;2023-02-01T17:22:49;27.52;;;10.52;;
77078;SDS011;66004;55.096;38.760;2023-02-01T17:25:18;19.33;;;8.50;;
77078;SDS011;66004;55.096;38.760;2023-02-01T17:27:45;23.15;;;10.45;;
77078;SDS011;66004;55.096;38.760;2023-02-01T17:30:14;22.60;;;9.65;;
77078;SDS011;66004;55.096;38.760;2023-02-01T17:32:40;26.52;;;9.63;;
77078;SDS011;66004;55.096;38.760;2023-02-01T17:35:15;24.08;;;10.10;;
77078;SDS011;66004;55.096;38.760;2023-02-01T17:37:45;22.10;;;9.95;;
77078;SDS011;66004;55.096;38.760;2023-02-01T17:40:11;24.33;;;9.50;;
77078;SDS011;66004;55.096;38.760;2023-02-01T17:42:37;23.23;;;9.32;;
77078;SDS011;66004;55.096;38.760;2023-02-01T17:45:26;21.00;;;10.07;;
77078;SDS011;66004;55.096;38.760;2023-02-01T17:48:01;22.20;;;9.38;;
77078;SDS011;66004;55.096;38.760;2023-02-01T17:50:31;22.55;;;10.18;;
77078;SDS011;66004;55.096;38.760;2023-02-01T17:52:58;24.35;;;9.73;;
77078;SDS011;66004;55.096;38.760;2023-02-01T17:55:24;23.00;;;8.98;;
77078;SDS011;66004;55.096;38.760;2023-02-01T17:57:51;24.73;;;10.32;;
77078;SDS011;66004;55.096;38.760;2023-02-01T18:00:17;21.50;;;9.57;;
77078;SDS011;66004;55.096;38.760;2023-02-01T18:02:43;20.38;;;8.65;;
77078;SDS011;66004;55.096;38.760;2023-02-01T18:05:12;25.65;;;10.23;;
77078;SDS011;66004;55.096;38.760;2023-02-01T18:07:47;18.42;;;9.15;;
77078;SDS011;66004;55.096;38.760;2023-02-01T18:10:13;23.40;;;9.25;;
77078;SDS011;66004;55.096;38.760;2023-02-01T18:12:39;21.52;;;9.88;;
77078;SDS011;66004;55.096;38.760;2023-02-01T18:18:00;25.42;;;9.30;;
77078;SDS011;66004;55.096;38.760;2023-02-01T18:20:25;25.33;;;10.50;;
77078;SDS011;66004;55.096;38.760;2023-02-01T18:22:53;26.75;;;10.55;;
77078;SDS011;66004;55.096;38.760;2023-02-01T18:25:22;24.02;;;9.48;;
77078;SDS011;66004;55.096;38.760;2023-02-01T18:27:53;25.25;;;10.63;;
77078;SDS011;66004;55.096;38.760;2023-02-01T18:30:20;26.15;;;10.40;;
77078;SDS011;66004;55.096;38.760;2023-02-01T18:32:47;26.60;;;10.57;;
77078;SDS011;66004;55.096;38.760;2023-02-01T18:35:19;27.80;;;10.85;;
77078;SDS011;66004;55.096;38.760;2023-02-01T18:37:46;25.25;;;10.30;;
77078;SDS011;66004;55.096;38.760;2023-02-01T18:40:14;23.00;;;9.45;;
77078;SDS011;66004;55.096;38.760;2023-02-01T18:42:42;23.80;;;10.23;;
77078;SDS011;66004;55.096;38.760;2023-02-01T18:45:13;26.98;;;10.75;;